Time;durP1;ratioP1;P1;durP2;ratioP2;P2;SDS_P1;SDS_P2;PMS_P1;PMS_P2;Temp;Humidity;BMP_temperature;BMP_pressure;BME280_temperature;BME280_humidity;BME280_pressure;Samples;Min_cycle;Max_cycle;Signal;HPM_P1;HPM_P2
2022/04/30 00:00:21;;;;;;;6.85;5.55;;;;;;;7.71;100.00;93480.47;2103586;28;20192;-81
2022/04/30 00:01:22;;;;;;;8.48;6.35;;;;;;;7.90;100.00;93474.69;2090076;28;20025;-81
2022/04/30 00:02:23;;;;;;;8.40;6.10;;;;;;;7.95;100.00;93482.25;2097847;28;20024;-80
2022/04/30 00:03:27;;;;;;;8.73;6.40;;;;;;;7.93;100.00;93481.13;2108377;28;20469;-80
2022/04/30 00:04:28;;;;;;;6.97;5.20;;;;;;;7.93;100.00;93478.44;2098764;28;20115;-83
2022/04/30 00:05:31;;;;;;;6.88;5.95;;;;;;;7.97;100.00;93469.28;2098177;28;20020;-81
2022/04/30 00:06:32;;;;;;;13.50;6.03;;;;;;;7.94;100.00;93471.97;2098407;28;20404;-80
2022/04/30 00:07:33;;;;;;;6.72;6.03;;;;;;;7.92;100.00;93469.72;2090033;28;20059;-82
2022/04/30 00:08:34;;;;;;;6.90;6.22;;;;;;;7.92;100.00;93477.69;2097276;28;20107;-81
2022/04/30 00:09:38;;;;;;;6.35;5.75;;;;;;;7.90;100.00;93465.91;2098329;28;20020;-82
2022/04/30 00:10:39;;;;;;;8.90;6.07;;;;;;;7.89;100.00;93473.13;2091154;28;20774;-82
2022/04/30 00:11:40;;;;;;;7.72;6.20;;;;;;;8.01;100.00;93474.59;2098269;28;20025;-80
2022/04/30 00:12:41;;;;;;;6.53;5.88;;;;;;;7.94;100.00;93462.09;2106455;28;20393;-81
2022/04/30 00:13:42;;;;;;;7.13;5.65;;;;;;;7.92;100.00;93458.31;2097771;28;20043;-81
2022/04/30 00:14:44;;;;;;;6.45;5.93;;;;;;;7.91;100.00;93462.13;2089631;28;20124;-82
2022/04/30 00:15:45;;;;;;;6.93;5.97;;;;;;;7.89;100.00;93461.75;2090442;28;20021;-81
2022/04/30 00:16:47;;;;;;;6.63;5.95;;;;;;;7.98;100.00;93462.06;2090153;28;20087;-80
2022/04/30 00:17:50;;;;;;;9.43;6.25;;;;;;;7.96;100.00;93464.38;2098407;28;20051;-80
2022/04/30 00:18:51;;;;;;;6.60;6.00;;;;;;;7.88;100.00;93460.22;2098680;28;20497;-80
2022/04/30 00:19:52;;;;;;;9.52;6.88;;;;;;;7.88;100.00;93458.31;2098402;28;20032;-80
2022/04/30 00:20:53;;;;;;;6.78;6.03;;;;;;;7.90;100.00;93458.72;2098090;28;20028;-81
2022/04/30 00:21:55;;;;;;;7.32;5.93;;;;;;;7.90;100.00;93460.59;2089947;28;20021;-79
2022/04/30 00:22:56;;;;;;;6.43;5.82;;;;;;;7.97;100.00;93458.66;2089975;28;20025;-80
2022/04/30 00:23:57;;;;;;;7.15;5.95;;;;;;;7.93;100.00;93452.59;2090046;28;20032;-81
2022/04/30 00:24:58;;;;;;;6.40;5.80;;;;;;;7.93;100.00;93463.22;2081845;28;20056;-81
2022/04/30 00:25:59;;;;;;;6.95;5.90;;;;;;;7.91;100.00;93456.81;2091113;28;20094;-80
2022/04/30 00:27:01;;;;;;;6.85;6.25;;;;;;;7.87;100.00;93456.06;2106602;28;20028;-82
2022/04/30 00:28:03;;;;;;;9.18;5.85;;;;;;;7.87;100.00;93458.72;2098527;28;20031;-81
2022/04/30 00:29:04;;;;;;;7.72;6.07;;;;;;;7.80;100.00;93449.63;2098273;28;20023;-81
2022/04/30 00:30:06;;;;;;;7.50;5.60;;;;;;;7.93;100.00;93455.25;2098270;28;20024;-82
2022/04/30 00:31:07;;;;;;;6.53;5.40;;;;;;;7.76;100.00;93458.78;2090142;28;20382;-81
2022/04/30 00:32:08;;;;;;;7.93;5.60;;;;;;;7.75;100.00;93450.03;2098167;28;20040;-81
2022/04/30 00:33:10;;;;;;;8.23;5.78;;;;;;;7.73;100.00;93449.69;2098175;28;20028;-82
2022/04/30 00:34:11;;;;;;;6.00;5.40;;;;;;;7.68;100.00;93451.97;2094052;28;20409;-81
2022/04/30 00:35:12;;;;;;;6.43;5.88;;;;;;;7.72;100.00;93453.47;2098054;28;20032;-81
2022/04/30 00:36:14;;;;;;;6.45;5.75;;;;;;;7.73;100.00;93449.69;2098072;28;20389;-82
2022/04/30 00:37:15;;;;;;;6.65;6.05;;;;;;;7.67;100.00;93448.56;2106553;28;20031;-82
2022/04/30 00:38:16;;;;;;;7.20;5.95;;;;;;;7.68;100.00;93444.78;2105554;28;20039;-82
2022/04/30 00:39:17;;;;;;;8.52;5.75;;;;;;;7.72;100.00;93447.38;2106493;28;20439;-80
2022/04/30 00:40:18;;;;;;;7.07;6.38;;;;;;;7.81;100.00;93437.84;2090179;28;20452;-81
2022/04/30 00:41:21;;;;;;;6.72;6.20;;;;;;;7.78;100.00;93445.84;2098134;28;20021;-81
2022/04/30 00:42:22;;;;;;;7.47;6.15;;;;;;;7.82;100.00;93442.03;2114947;28;20022;-81
2022/04/30 00:43:23;;;;;;;8.45;7.03;;;;;;;8.00;100.00;93443.81;2106528;28;20020;-80
2022/04/30 00:44:24;;;;;;;6.70;6.10;;;;;;;8.00;100.00;93438.50;2089915;28;20086;-82
2022/04/30 00:45:25;;;;;;;7.10;6.40;;;;;;;8.03;100.00;93440.34;2098227;28;20021;-81
2022/04/30 00:46:27;;;;;;;7.50;6.50;;;;;;;8.04;100.00;93437.31;2106384;28;20028;-82
2022/04/30 00:47:28;;;;;;;7.97;6.57;;;;;;;8.22;100.00;93436.44;2106522;28;20511;-82
2022/04/30 00:48:29;;;;;;;9.55;7.20;;;;;;;8.22;100.00;93436.44;2098189;28;20035;-82
2022/04/30 00:49:30;;;;;;;8.50;7.00;;;;;;;8.16;100.00;93436.06;2089419;28;20025;-80
2022/04/30 00:50:36;;;;;;;8.18;6.88;;;;;;;8.13;100.00;93434.22;2089493;28;20545;-81
2022/04/30 00:51:41;;;;;;;8.07;6.82;;;;;;;8.21;100.00;93443.66;2099483;28;20025;-80
2022/04/30 00:52:46;;;;;;;6.68;6.13;;;;;;;8.18;100.00;93446.34;2097677;28;20107;-82
2022/04/30 00:53:49;;;;;;;8.95;6.47;;;;;;;8.07;100.00;93443.75;2099012;28;20032;-82
2022/04/30 00:54:52;;;;;;;7.43;6.68;;;;;;;8.15;100.00;93436.47;2098196;28;20048;-82
2022/04/30 00:55:55;;;;;;;8.40;7.53;;;;;;;8.22;100.00;93439.09;2098351;28;20017;-82
2022/04/30 00:56:59;;;;;;;6.90;6.30;;;;;;;8.32;98.60;93441.66;2098505;28;20047;-81
2022/04/30 00:58:04;;;;;;;8.10;6.63;;;;;;;8.34;96.97;93443.94;2098273;28;20451;-81
2022/04/30 00:59:06;;;;;;;9.93;7.00;;;;;;;8.28;98.86;93440.94;2098657;28;20613;-79
2022/04/30 01:00:07;;;;;;;6.65;6.15;;;;;;;8.32;99.39;93441.66;2089988;28;20487;-81
2022/04/30 01:01:09;;;;;;;7.03;6.32;;;;;;;8.33;96.79;93432.50;2089795;28;20035;-82
2022/04/30 01:02:11;;;;;;;7.18;6.47;;;;;;;8.35;96.04;93442.78;2097502;28;20044;-82
2022/04/30 01:03:12;;;;;;;7.32;6.55;;;;;;;8.33;96.92;93439.75;2098254;28;20107;-81
2022/04/30 01:04:14;;;;;;;7.30;6.55;;;;;;;8.45;94.97;93436.63;2097991;28;20083;-82
2022/04/30 01:05:15;;;;;;;10.55;6.43;;;;;;;8.45;94.38;93435.88;2097846;28;20059;-80
2022/04/30 01:06:21;;;;;;;9.70;6.70;;;;;;;8.49;94.59;93441.94;2089543;28;20051;-82
2022/04/30 01:07:23;;;;;;;7.22;6.30;;;;;;;8.56;94.83;93432.00;2099033;28;20028;-80
2022/04/30 01:08:29;;;;;;;7.13;6.43;;;;;;;8.78;90.60;93440.53;2106415;28;20024;-82
2022/04/30 01:09:34;;;;;;;7.85;6.30;;;;;;;8.72;91.60;93430.69;2099538;28;20023;-82
2022/04/30 01:10:35;;;;;;;7.65;6.18;;;;;;;8.62;93.25;93434.22;2098474;28;20024;-79
2022/04/30 01:11:36;;;;;;;10.63;7.30;;;;;;;8.51;94.96;93435.06;2097756;28;20032;-82
2022/04/30 01:12:38;;;;;;;7.82;6.03;;;;;;;8.46;95.52;93432.81;2097921;28;20099;-82
2022/04/30 01:13:39;;;;;;;8.18;6.75;;;;;;;8.44;94.54;93439.72;2097397;28;20039;-80
2022/04/30 01:14:41;;;;;;;9.90;6.88;;;;;;;8.40;95.81;93437.06;2097398;28;20052;-81
2022/04/30 01:15:43;;;;;;;7.38;6.68;;;;;;;8.45;93.83;93433.22;2106175;28;20040;-80
2022/04/30 01:16:45;;;;;;;9.27;6.78;;;;;;;8.48;93.88;93427.88;2097789;28;20504;-80
2022/04/30 01:17:46;;;;;;;7.45;6.68;;;;;;;8.56;93.77;93432.00;2098180;28;20032;-80
2022/04/30 01:18:47;;;;;;;9.40;7.13;;;;;;;8.58;92.89;93431.59;2097924;28;20024;-82
2022/04/30 01:19:49;;;;;;;7.95;7.10;;;;;;;8.49;94.55;93432.03;2089681;28;20024;-80
2022/04/30 01:20:53;;;;;;;8.07;7.03;;;;;;;8.60;91.79;93434.59;2089630;28;20021;-81
2022/04/30 01:21:59;;;;;;;9.73;6.97;;;;;;;8.66;91.80;93425.03;2090496;28;20111;-80
2022/04/30 01:23:03;;;;;;;8.38;6.70;;;;;;;8.66;92.68;93417.03;2106742;28;20023;-81
2022/04/30 01:24:05;;;;;;;7.70;6.80;;;;;;;8.52;93.32;93428.59;2098156;28;20028;-80
2022/04/30 01:25:07;;;;;;;9.52;6.60;;;;;;;8.59;92.58;93430.44;2098068;28;20056;-80
2022/04/30 01:26:10;;;;;;;8.15;7.32;;;;;;;8.73;90.98;93424.19;2097059;28;20137;-81
2022/04/30 01:27:11;;;;;;;9.70;7.35;;;;;;;8.80;89.71;93418.81;2090018;28;20033;-81
2022/04/30 01:28:13;;;;;;;10.00;7.72;;;;;;;8.96;88.41;93424.38;2089495;28;20052;-81
2022/04/30 01:29:17;;;;;;;9.75;7.28;;;;;;;8.87;90.34;93423.31;2089739;28;20036;-81
2022/04/30 01:30:19;;;;;;;10.93;7.60;;;;;;;8.76;90.17;93418.09;2089841;28;20128;-81
2022/04/30 01:38:04;;;;;;;10.00;7.70;;;;;;;8.84;90.39;93422.19;2113398;28;20467;-81
2022/04/30 01:39:06;;;;;;;9.20;7.32;;;;;;;8.94;88.13;93424.00;2097544;28;20020;-82
2022/04/30 01:40:09;;;;;;;8.55;7.63;;;;;;;8.81;89.54;93421.06;2089814;28;20078;-82
2022/04/30 01:41:10;;;;;;;10.48;8.50;;;;;;;8.74;91.34;93421.16;2090072;28;20021;-81
2022/04/30 01:42:11;;;;;;;10.80;8.73;;;;;;;8.99;88.04;93422.78;2097565;28;20394;-80
2022/04/30 01:43:14;;;;;;;11.73;8.25;;;;;;;8.97;87.57;93425.13;2097552;28;20474;-80
2022/04/30 01:44:16;;;;;;;9.73;8.15;;;;;;;9.12;86.71;93420.38;2097968;28;20023;-82
2022/04/30 01:45:18;;;;;;;9.48;8.55;;;;;;;8.96;88.83;93416.38;2089583;28;20025;-80
2022/04/30 01:46:19;;;;;;;10.88;8.25;;;;;;;9.02;88.34;93419.34;2097885;28;20016;-81
2022/04/30 01:47:23;;;;;;;13.07;8.70;;;;;;;8.90;88.53;93415.28;2097485;28;20030;-81
2022/04/30 01:48:25;;;;;;;12.07;9.10;;;;;;;9.09;88.20;93413.94;2098130;28;20048;-81
2022/04/30 01:49:26;;;;;;;11.35;9.43;;;;;;;8.92;89.73;93423.66;2105830;28;20055;-82
2022/04/30 01:50:27;;;;;;;10.38;9.38;;;;;;;8.89;89.50;93415.69;2113922;28;20031;-82
2022/04/30 01:51:28;;;;;;;11.00;9.63;;;;;;;8.79;90.74;93420.72;2105993;28;20027;-82
2022/04/30 01:52:30;;;;;;;13.18;9.60;;;;;;;8.84;90.10;93419.53;2097659;28;20024;-82
2022/04/30 01:53:31;;;;;;;12.80;9.90;;;;;;;8.88;90.57;93422.16;2089377;28;20032;-82
2022/04/30 01:54:32;;;;;;;10.68;9.20;;;;;;;8.82;90.66;93421.81;2089321;28;20064;-81
2022/04/30 01:55:33;;;;;;;11.32;9.52;;;;;;;8.73;91.24;93422.28;2105820;28;20027;-81
2022/04/30 01:56:34;;;;;;;11.77;9.43;;;;;;;8.75;91.89;93424.56;2106047;28;20058;-80
2022/04/30 01:57:38;;;;;;;10.65;9.00;;;;;;;8.68;92.01;93419.31;2106006;28;20054;-81
2022/04/30 01:58:39;;;;;;;10.63;9.63;;;;;;;8.79;91.31;93422.63;2098189;28;20448;-80
2022/04/30 01:59:40;;;;;;;11.73;9.45;;;;;;;8.85;91.08;93422.94;2097725;28;20107;-80
2022/04/30 02:00:41;;;;;;;10.65;9.73;;;;;;;8.65;93.13;93425.41;2105992;28;20036;-81
2022/04/30 02:01:43;;;;;;;12.98;10.07;;;;;;;8.60;93.42;93423.94;2097018;28;20024;-81
2022/04/30 02:02:48;;;;;;;12.52;9.85;;;;;;;8.55;93.44;93427.78;2089336;28;20024;-80
2022/04/30 02:03:49;;;;;;;11.63;10.38;;;;;;;8.67;93.35;93428.47;2098121;28;20377;-80
2022/04/30 02:04:52;;;;;;;10.32;9.25;;;;;;;8.67;93.20;93426.56;2097375;28;20024;-80
2022/04/30 02:05:53;;;;;;;11.88;9.90;;;;;;;8.70;92.77;93433.00;2097688;28;20452;-80
2022/04/30 02:06:55;;;;;;;10.35;9.35;;;;;;;8.60;93.43;93423.94;2097870;28;20036;-80
2022/04/30 02:08:07;;;;;;;12.63;9.73;;;;;;;8.65;94.54;93428.09;2105724;28;20055;-83
2022/04/30 02:09:09;;;;;;;10.98;9.85;;;;;;;8.55;94.86;93424.38;2098904;28;20028;-80
2022/04/30 02:10:11;;;;;;;10.85;9.75;;;;;;;8.50;95.37;93422.91;2089663;28;20036;-80
2022/04/30 02:12:58;;;;;;;;;;;;;;;8.58;95.15;93429.69;2148626;27;20117;-79
2022/04/30 02:14:02;;;;;;;9.45;8.55;;;;;;;8.66;94.65;93432.28;2129227;27;19915;-81
2022/04/30 02:15:04;;;;;;;11.13;9.90;;;;;;;8.64;94.37;93429.25;2113838;27;20423;-80
2022/04/30 02:16:05;;;;;;;11.48;10.27;;;;;;;8.62;94.86;93431.56;2113702;27;20023;-82
2022/04/30 02:17:09;;;;;;;11.60;10.50;;;;;;;8.76;94.28;93428.75;2121837;27;20019;-81
2022/04/30 02:18:13;;;;;;;10.82;9.73;;;;;;;8.66;94.94;93427.72;2130499;27;20080;-80
2022/04/30 02:19:15;;;;;;;10.98;9.95;;;;;;;8.63;95.78;93431.16;2130152;27;20019;-81
2022/04/30 02:20:28;;;;;;;12.52;10.90;;;;;;;8.67;96.36;93423.13;2121974;27;20022;-82
2022/04/30 02:21:31;;;;;;;11.88;10.65;;;;;;;8.62;95.21;93429.66;2123369;27;20456;-81
2022/04/30 02:22:34;;;;;;;13.35;10.40;;;;;;;8.55;96.61;93424.38;2121967;27;20031;-80
2022/04/30 02:23:36;;;;;;;13.00;10.95;;;;;;;8.81;94.39;93429.06;2122210;27;20546;-81
2022/04/30 02:24:37;;;;;;;16.10;10.23;;;;;;;8.80;94.43;93430.22;2130036;27;20034;-82
2022/04/30 02:25:38;;;;;;;11.15;9.98;;;;;;;8.73;94.56;93432.94;2126155;27;20475;-80
2022/04/30 02:26:40;;;;;;;14.60;10.85;;;;;;;8.63;96.36;93431.16;2125842;27;20023;-82
2022/04/30 02:27:44;;;;;;;13.15;10.73;;;;;;;8.64;96.22;93432.66;2121542;28;20417;-80
2022/04/30 02:28:45;;;;;;;11.57;10.38;;;;;;;8.57;96.75;93427.41;2105444;28;20035;-81
2022/04/30 02:29:46;;;;;;;13.52;11.20;;;;;;;8.55;96.75;93433.13;2104708;28;20024;-80
2022/04/30 02:30:48;;;;;;;11.68;10.43;;;;;;;8.52;97.53;93433.19;2104490;28;20124;-80
2022/04/30 02:31:48;;;;;;;11.73;10.52;;;;;;;8.46;98.71;93438.16;2126741;27;20027;-80
2022/04/30 02:33:05;;;;;;;14.07;10.45;;;;;;;8.46;98.32;93435.47;2129904;27;20046;-82
2022/04/30 02:34:05;;;;;;;12.27;10.82;;;;;;;8.43;98.56;93436.28;2114985;28;20054;-80
2022/04/30 02:35:08;;;;;;;13.48;11.25;;;;;;;8.44;99.44;93437.81;2113025;28;20047;-81
2022/04/30 02:36:09;;;;;;;13.20;10.48;;;;;;;8.42;98.67;93439.34;2113650;27;20028;-80
2022/04/30 02:37:14;;;;;;;11.35;10.20;;;;;;;8.48;99.02;93440.44;2113133;28;20027;-82
2022/04/30 02:38:18;;;;;;;12.85;11.18;;;;;;;8.48;100.00;93427.13;2120820;27;20478;-83
2022/04/30 02:39:19;;;;;;;11.43;10.38;;;;;;;8.46;100.00;93438.16;2113369;28;20754;-83
2022/04/30 02:40:22;;;;;;;13.38;10.77;;;;;;;8.38;100.00;93434.03;2104844;28;20025;-82
2022/04/30 02:41:23;;;;;;;11.88;10.52;;;;;;;8.40;100.00;93444.31;2106239;28;20031;-82
2022/04/30 02:42:24;;;;;;;12.45;11.25;;;;;;;8.34;100.00;93430.63;2109971;27;20026;-82
2022/04/30 02:43:28;;;;;;;13.95;11.00;;;;;;;8.32;100.00;93438.25;2118438;28;20083;-82
2022/04/30 02:44:29;;;;;;;12.00;10.80;;;;;;;8.32;100.00;93438.25;2116634;27;20073;-81
2022/04/30 02:45:30;;;;;;;13.93;10.27;;;;;;;8.35;100.00;93439.38;2120157;28;20027;-80
2022/04/30 02:46:31;;;;;;;11.52;10.35;;;;;;;8.56;99.43;93436.56;2126990;27;20111;-81
2022/04/30 02:47:31;;;;;;;11.50;10.30;;;;;;;8.53;99.40;93435.44;2115440;27;20110;-80
2022/04/30 02:48:33;;;;;;;11.82;10.73;;;;;;;8.62;98.93;93436.88;2114324;27;20483;-82
2022/04/30 02:49:33;;;;;;;14.82;10.57;;;;;;;8.52;98.95;93436.59;2115450;27;20027;-81
2022/04/30 02:50:36;;;;;;;13.13;10.43;;;;;;;8.48;99.21;93435.09;2112386;28;20030;-79
2022/04/30 02:51:37;;;;;;;12.50;11.18;;;;;;;8.42;100.00;93440.09;2121174;28;20087;-80
2022/04/30 02:52:43;;;;;;;14.18;10.90;;;;;;;8.43;100.00;93436.28;2112780;28;20020;-80
2022/04/30 02:53:44;;;;;;;12.77;10.43;;;;;;;8.73;99.66;93442.84;2114094;27;20027;-80
2022/04/30 02:54:45;;;;;;;12.18;10.93;;;;;;;8.85;98.16;93441.63;2112810;28;20872;-82
2022/04/30 02:55:46;;;;;;;13.73;11.35;;;;;;;8.60;100.00;93439.19;2121212;28;20118;-81
2022/04/30 02:56:47;;;;;;;12.60;11.32;;;;;;;8.55;100.00;93437.69;2109255;28;20416;-80
2022/04/30 03:00:31;;;;;;;14.02;11.75;;;;;;;8.26;100.00;93445.16;2130397;27;20022;-80
2022/04/30 03:01:33;;;;;;;16.25;11.60;;;;;;;8.19;100.00;93447.84;2129362;27;20027;-84
2022/04/30 03:02:34;;;;;;;15.73;12.10;;;;;;;8.18;100.00;93451.69;2112495;28;20047;-80
2022/04/30 03:03:35;;;;;;;15.48;12.68;;;;;;;8.20;100.00;93439.47;2115875;28;20787;-84
2022/04/30 03:04:36;;;;;;;14.07;12.40;;;;;;;8.12;100.00;93443.34;2121380;27;20084;-82
2022/04/30 03:05:40;;;;;;;14.02;12.32;;;;;;;8.02;100.00;93436.94;2121042;27;20035;-82
2022/04/30 03:06:41;;;;;;;16.98;13.07;;;;;;;7.96;100.00;93441.16;2130323;27;20027;-83
2022/04/30 03:07:43;;;;;;;13.77;12.23;;;;;;;7.95;100.00;93444.22;2124753;27;20042;-81
2022/04/30 03:08:48;;;;;;;15.40;12.88;;;;;;;7.88;100.00;93446.94;2121521;27;20019;-82
2022/04/30 03:09:49;;;;;;;16.58;12.85;;;;;;;7.90;100.00;93441.97;2132876;27;20027;-84
2022/04/30 03:10:55;;;;;;;15.90;12.07;;;;;;;7.92;100.00;93447.66;2126365;27;20026;-79
2022/04/30 03:11:57;;;;;;;13.65;12.15;;;;;;;7.79;100.00;93439.38;2138529;27;20050;-80
2022/04/30 03:12:58;;;;;;;14.45;12.40;;;;;;;7.78;100.00;93441.28;2129444;27;20035;-81
2022/04/30 03:14:00;;;;;;;13.90;12.48;;;;;;;7.67;100.00;93439.81;2126097;27;20024;-80
2022/04/30 03:15:01;;;;;;;13.93;12.50;;;;;;;7.75;100.00;93442.06;2113527;28;20416;-83
2022/04/30 03:21:44;;;;;;;;;;;;;;;7.86;100.00;93435.91;2138814;27;20019;-82
2022/04/30 03:22:47;;;;;;;13.45;11.90;;;;;;;7.80;100.00;93440.88;2138348;27;19907;-82
2022/04/30 03:23:48;;;;;;;19.52;12.55;;;;;;;7.76;100.00;93440.16;2127350;27;20080;-83
2022/04/30 03:24:50;;;;;;;18.48;13.38;;;;;;;7.67;100.00;93450.47;2115462;27;20069;-83
2022/04/30 03:25:52;;;;;;;14.18;12.77;;;;;;;7.70;100.00;93439.06;2114870;28;20020;-82
2022/04/30 03:26:53;;;;;;;16.48;13.35;;;;;;;7.68;100.00;93444.00;2107117;27;20086;-82
2022/04/30 03:27:53;;;;;;;16.40;13.85;;;;;;;7.66;100.00;93443.63;2107023;28;20514;-82
2022/04/30 03:28:55;;;;;;;15.20;13.73;;;;;;;7.60;100.00;93440.63;2107127;28;20016;-82
2022/04/30 03:29:56;;;;;;;14.43;13.00;;;;;;;7.70;100.00;93441.72;2107143;27;20024;-84
2022/04/30 03:30:57;;;;;;;17.15;14.20;;;;;;;7.64;100.00;93436.06;2115282;27;20019;-84
2022/04/30 03:31:58;;;;;;;16.38;13.70;;;;;;;7.61;100.00;93441.38;2108974;28;20020;-81
2022/04/30 03:32:59;;;;;;;16.33;14.55;;;;;;;7.56;100.00;93442.53;2098913;28;20056;-81
2022/04/30 03:34:01;;;;;;;15.38;13.82;;;;;;;7.55;100.00;93439.13;2107261;27;20031;-82
2022/04/30 03:35:04;;;;;;;15.38;13.77;;;;;;;7.54;100.00;93440.25;2107060;28;20176;-83
2022/04/30 03:36:06;;;;;;;16.45;14.75;;;;;;;7.56;100.00;93440.66;2107543;27;20031;-81
2022/04/30 03:37:07;;;;;;;15.45;13.88;;;;;;;7.51;100.00;93441.06;2107058;28;20495;-81
2022/04/30 03:38:09;;;;;;;15.45;13.85;;;;;;;7.47;100.00;93442.22;2113323;27;20031;-84
2022/04/30 03:39:10;;;;;;;21.35;14.55;;;;;;;7.49;100.00;93440.66;2107241;28;20058;-80
2022/04/30 03:40:11;;;;;;;15.55;14.05;;;;;;;7.55;100.00;93444.47;2106898;28;20489;-81
2022/04/30 03:41:12;;;;;;;17.40;14.73;;;;;;;7.45;100.00;93442.59;2115397;27;20028;-81
2022/04/30 03:42:13;;;;;;;15.55;14.07;;;;;;;7.46;100.00;93446.78;2123844;27;20027;-82
2022/04/30 03:43:15;;;;;;;15.32;13.82;;;;;;;7.47;100.00;93444.88;2115282;28;20024;-81
2022/04/30 03:44:16;;;;;;;16.00;14.43;;;;;;;7.46;100.00;93446.00;2115903;27;20023;-82
2022/04/30 03:45:17;;;;;;;15.38;13.85;;;;;;;7.43;100.00;93436.91;2132299;27;20022;-83
2022/04/30 03:46:18;;;;;;;16.67;14.98;;;;;;;7.47;100.00;93436.91;2132882;27;20079;-81
2022/04/30 03:47:20;;;;;;;15.30;13.70;;;;;;;7.56;100.00;93442.53;2123893;27;20015;-84
2022/04/30 03:48:21;;;;;;;17.95;14.50;;;;;;;7.52;100.00;93439.91;2107041;28;20016;-81
2022/04/30 03:49:22;;;;;;;16.20;14.52;;;;;;;7.46;100.00;93438.03;2098320;28;20020;-83
2022/04/30 03:50:23;;;;;;;16.35;14.68;;;;;;;7.43;100.00;93436.16;2098016;28;20098;-82
2022/04/30 03:51:24;;;;;;;16.80;15.05;;;;;;;7.43;100.00;93436.91;2098541;28;20028;-82
2022/04/30 03:52:25;;;;;;;16.85;14.98;;;;;;;7.44;100.00;93435.75;2098473;28;20086;-85
2022/04/30 03:53:26;;;;;;;17.75;14.90;;;;;;;7.46;100.00;93438.03;2115334;28;20464;-84
2022/04/30 03:54:27;;;;;;;15.95;14.30;;;;;;;7.39;100.00;93441.47;2123624;27;20495;-82
2022/04/30 03:55:28;;;;;;;16.15;14.52;;;;;;;7.52;100.00;93436.50;2115140;28;20027;-81
2022/04/30 03:56:31;;;;;;;16.40;14.52;;;;;;;7.55;100.00;93438.34;2115175;27;20114;-84
2022/04/30 03:57:32;;;;;;;16.10;14.50;;;;;;;7.49;100.00;93440.66;2115479;28;20031;-81
2022/04/30 03:58:33;;;;;;;15.90;14.30;;;;;;;7.40;100.00;93442.25;2123902;27;20383;-82
2022/04/30 03:59:34;;;;;;;18.42;15.63;;;;;;;7.31;100.00;93434.69;2115176;28;20031;-82
2022/04/30 04:00:35;;;;;;;17.83;16.00;;;;;;;7.34;100.00;93444.56;2114105;28;20023;-82
2022/04/30 04:01:38;;;;;;;17.15;15.35;;;;;;;7.38;100.00;93439.97;2114668;28;20086;-82
2022/04/30 04:02:40;;;;;;;17.63;15.80;;;;;;;7.42;100.00;93439.94;2115175;27;20480;-85
2022/04/30 04:03:42;;;;;;;16.10;14.50;;;;;;;7.32;100.00;93439.59;2106870;28;20031;-82
2022/04/30 04:04:44;;;;;;;16.95;14.32;;;;;;;7.50;100.00;93439.50;2098912;28;20551;-82
2022/04/30 04:05:46;;;;;;;16.20;14.68;;;;;;;7.50;100.00;93439.50;2106520;28;20028;-82
2022/04/30 04:06:47;;;;;;;17.92;16.13;;;;;;;7.46;100.00;93440.69;2106976;28;20020;-83
2022/04/30 04:07:49;;;;;;;17.85;15.52;;;;;;;7.40;100.00;93437.69;2111231;27;20031;-82
2022/04/30 04:08:52;;;;;;;19.08;15.90;;;;;;;7.34;100.00;93436.56;2123688;27;20027;-83
2022/04/30 04:09:53;;;;;;;17.67;15.25;;;;;;;7.44;100.00;93435.75;2123834;27;20025;-83
2022/04/30 04:10:54;;;;;;;16.70;15.02;;;;;;;7.38;100.00;93439.97;2123483;27;20415;-82
2022/04/30 04:11:55;;;;;;;17.95;15.60;;;;;;;7.56;100.00;93439.88;2123589;27;20022;-83
2022/04/30 04:17:37;;;;;;;17.13;15.43;;;;;;;7.64;100.00;93446.69;2123305;27;20043;-83
2022/04/30 04:18:16;;;;;;;17.25;15.45;;;;;;;7.42;100.00;93443.38;2123487;27;20031;-83
2022/04/30 04:19:20;;;;;;;18.88;15.82;;;;;;;7.48;100.00;93443.72;2106586;28;20028;-80
2022/04/30 04:20:25;;;;;;;17.67;15.77;;;;;;;7.44;100.00;93443.75;2107490;27;20413;-80
2022/04/30 04:21:26;;;;;;;18.75;16.77;;;;;;;7.39;100.00;93449.47;2107116;28;20571;-82
2022/04/30 04:22:28;;;;;;;17.20;15.48;;;;;;;7.35;100.00;93435.41;2106586;28;20013;-82
2022/04/30 04:25:58;;;;;;;17.88;16.17;;;;;;;7.36;100.00;93444.16;2115165;28;20065;-82
2022/04/30 04:26:10;;;;;;;23.17;18.35;;;;;;;7.41;100.00;93438.44;2122384;27;20392;-83
2022/04/30 04:27:11;;;;;;;28.05;19.73;;;;;;;7.40;100.00;93436.91;2115114;28;20028;-83
2022/04/30 04:28:12;;;;;;;20.55;17.90;;;;;;;7.34;100.00;93435.81;2115049;28;20031;-80
2022/04/30 04:29:16;;;;;;;20.17;18.15;;;;;;;7.34;100.00;93433.16;2115171;28;20028;-80
2022/04/30 04:30:17;;;;;;;19.60;17.50;;;;;;;7.43;100.00;93430.84;2114974;28;20118;-81
2022/04/30 04:31:22;;;;;;;19.50;17.42;;;;;;;7.49;100.00;93432.69;2106520;28;20024;-82
2022/04/30 04:32:24;;;;;;;19.27;17.30;;;;;;;7.44;100.00;93435.00;2123281;27;20027;-83
2022/04/30 04:33:28;;;;;;;20.38;17.92;;;;;;;7.38;100.00;93436.56;2107228;28;20107;-81
2022/04/30 04:34:29;;;;;;;23.38;18.45;;;;;;;7.50;100.00;93442.19;2107150;28;20019;-81
2022/04/30 04:35:30;;;;;;;23.10;18.88;;;;;;;7.46;100.00;93433.47;2122816;27;20026;-83
2022/04/30 04:36:31;;;;;;;22.98;19.55;;;;;;;7.41;100.00;93433.09;2114400;28;20031;-82
2022/04/30 04:37:32;;;;;;;23.33;19.08;;;;;;;7.37;100.00;93433.13;2114469;27;20471;-83
2022/04/30 04:38:34;;;;;;;22.42;18.63;;;;;;;7.37;100.00;93446.41;2114362;28;20054;-82
2022/04/30 04:39:35;;;;;;;19.25;17.15;;;;;;;7.35;100.00;93439.97;2106523;28;20249;-83
2022/04/30 04:40:37;;;;;;;20.92;18.83;;;;;;;7.38;100.00;93439.22;2106684;28;20055;-82
2022/04/30 04:41:38;;;;;;;22.10;19.55;;;;;;;7.42;100.00;93440.72;2122596;27;20027;-83
2022/04/30 04:42:40;;;;;;;20.75;18.60;;;;;;;7.43;100.00;93436.91;2123321;27;20909;-82
2022/04/30 04:43:41;;;;;;;20.25;18.10;;;;;;;7.42;100.00;93439.94;2115068;27;20016;-81
2022/04/30 04:44:42;;;;;;;21.30;19.20;;;;;;;7.36;100.00;93442.25;2106310;28;20031;-81
2022/04/30 04:45:44;;;;;;;22.23;18.75;;;;;;;7.39;100.00;93438.81;2114828;28;20424;-83
2022/04/30 04:46:45;;;;;;;20.35;18.38;;;;;;;7.38;100.00;93431.25;2114816;28;20028;-83
2022/04/30 04:47:49;;;;;;;21.38;18.63;;;;;;;7.31;100.00;93437.34;2123318;27;20034;-83
2022/04/30 04:48:51;;;;;;;20.05;17.98;;;;;;;7.31;100.00;93432.78;2130747;27;20026;-81
2022/04/30 04:49:52;;;;;;;18.75;16.85;;;;;;;7.27;100.00;93437.34;2115382;27;20012;-82
2022/04/30 04:50:53;;;;;;;18.65;16.73;;;;;;;7.22;100.00;93434.34;2108806;28;20522;-84
2022/04/30 04:51:55;;;;;;;19.70;17.60;;;;;;;7.31;100.00;93434.69;2106322;28;20055;-82
2022/04/30 04:52:56;;;;;;;19.08;17.10;;;;;;;7.31;100.00;93426.69;2106495;28;20032;-81
2022/04/30 04:53:57;;;;;;;19.33;15.52;;;;;;;7.44;100.00;93427.78;2098065;28;20028;-81
2022/04/30 04:54:58;;;;;;;16.85;15.05;;;;;;;7.37;100.00;93427.03;2112556;28;20502;-82
2022/04/30 04:56:01;;;;;;;16.45;14.65;;;;;;;7.38;100.00;93428.59;2106350;28;20020;-82
2022/04/30 04:57:03;;;;;;;17.35;15.65;;;;;;;7.24;100.00;93432.81;2106604;28;20020;-83
2022/04/30 04:58:04;;;;;;;18.17;14.95;;;;;;;7.18;100.00;93436.25;2106686;27;20163;-82
2022/04/30 04:59:06;;;;;;;16.40;14.75;;;;;;;7.21;100.00;93436.25;2114820;28;20812;-81
2022/04/30 05:00:09;;;;;;;17.08;15.38;;;;;;;7.22;100.00;93437.75;2106327;28;20027;-82
2022/04/30 05:01:10;;;;;;;17.35;15.55;;;;;;;7.25;100.00;93436.22;2105920;28;20477;-82
2022/04/30 05:02:11;;;;;;;16.75;15.15;;;;;;;7.10;100.00;93422.22;2097073;28;20036;-82
2022/04/30 05:03:13;;;;;;;17.13;15.30;;;;;;;7.24;100.00;93427.50;2106305;28;20035;-83
2022/04/30 05:04:14;;;;;;;19.08;16.20;;;;;;;7.28;100.00;93430.88;2114824;27;20161;-81
2022/04/30 05:05:15;;;;;;;17.40;15.70;;;;;;;7.38;100.00;93436.56;2106087;28;20055;-83
2022/04/30 05:06:16;;;;;;;16.70;14.77;;;;;;;7.35;100.00;93432.00;2097884;28;20020;-82
2022/04/30 05:07:17;;;;;;;18.05;16.25;;;;;;;7.43;100.00;93434.25;2098122;28;20024;-83
2022/04/30 05:08:18;;;;;;;18.77;15.93;;;;;;;7.45;100.00;93436.50;2107171;27;20574;-83
2022/04/30 05:09:19;;;;;;;17.52;15.68;;;;;;;7.33;100.00;93427.06;2114646;28;20072;-82
2022/04/30 05:10:20;;;;;;;18.15;16.30;;;;;;;7.36;100.00;93439.59;2106374;28;20036;-82
2022/04/30 05:11:22;;;;;;;19.13;17.15;;;;;;;7.34;100.00;93431.25;2123090;27;20019;-81